• Join FlightAware (Why Join?)
  • Login
  • US Flag 
11:32AM EDT


 

Airport Tracker/Info


-or-


 

Live Flight TrackerFlight Track Log ✈ SKW4542 ✈ 23-Apr-2013 ✈ KSLC - KIDA

Flight Track Log - Related Links

Times and Time Zones

All times are in EDT time to prevent confusion due to time zone crossing. See the SKW4542 flight status page for this flight to view local times or setup timezone preferences in your user account.

Time Position Orientation Groundspeed Altitude Reporting Facility
EDT Latitude Longitude Course Direction KTS MPH feet Rate Location/Type
07:15PM 40.8100 -111.9639 37° Northeast 184 212 5,200  Level Salt Lake Center
07:15PM 40.8456 -111.9689 354° North 188 216 6,600 1,860 Climbing Salt Lake Center
07:16PM 40.8744 -111.9711 357° North 214 246 7,500 2,040 Climbing Salt Lake Center
07:17PM 41.0958 -111.9751 56° Northeast  Level FlightAware Approximate
07:17PM 40.9486 -111.9825 353° North 266 306 9,800  Level Salt Lake Center
07:18PM 41.1699 -111.8709 43° Northeast  Level FlightAware Approximate
07:18PM 41.0289 -111.9886 357° North 284 327 12,800  Level Salt Lake Center
07:19PM 41.2568 -111.7932 37° Northeast  Level FlightAware Approximate
07:19PM 41.1119 -111.9908 359° North 293 337 15,200  Level Salt Lake Center
07:20PM 41.3481 -111.7186 37° Northeast  Level FlightAware Approximate
07:20PM 41.1981 -111.9931 359° North 307 353 17,400  Level Salt Lake Center
07:21PM 41.2836 -111.9958 359° North 306 352 19,300 1,800 Climbing Salt Lake Center
07:22PM 41.3708 -111.9981 359° North 311 358 21,200 1,980 Climbing Salt Lake Center
07:23PM 41.4744 -112.0014 359° North 310 357 23,400 1,320 Climbing Salt Lake Center
07:24PM 41.5642 -112.0050 358° North 321 369 24,000 240 Climbing Salt Lake Center
07:25PM 41.6569 -112.0083 358° North 333 383 24,000  Level Salt Lake Center
07:26PM 41.7486 -112.0117 358° North 331 381 24,000  Level Salt Lake Center
07:27PM 41.8403 -112.0142 359° North 328 377 24,000  Level Salt Lake Center
07:28PM 41.9331 -112.0164 359° North 333 383 24,000  Level Salt Lake Center
07:29PM 42.0242 -112.0197 358° North 330 380 24,000  Level Salt Lake Center
07:30PM 42.1161 -112.0225 359° North 330 380 24,000  Level Salt Lake Center
07:31PM 42.2258 -112.0258 359° North 331 381 24,000  Level Salt Lake Center
07:32PM 42.3167 -112.0281 359° North 327 376 24,000  Level Salt Lake Center
07:33PM 42.4075 -112.0331 358° North 328 377 24,000  Level Salt Lake Center
07:34PM 42.4981 -112.0369 358° North 326 375 24,000  Level Salt Lake Center
07:35PM 42.5892 -112.0389 359° North 326 375 24,000 -480 Level Salt Lake Center
07:36PM 42.6806 -112.0411 359° North 327 376 23,100 -1,620 Descending Salt Lake Center
07:37PM 42.7731 -112.0456 358° North 319 367 20,800 -2,400 Descending Salt Lake Center
07:38PM 42.8728 -112.0492 358° North 319 367 18,300 -2,160 Descending Salt Lake Center
07:39PM 42.9553 -112.0478 North 314 361 16,400 -2,040 Descending Salt Lake Center
07:40PM 43.0500 -112.0506 359° North 306 352 14,100 -2,100 Descending Salt Lake Center
07:42PM 43.1294 -112.0553 358° North 300 345 12,100 -2,040 Descending Salt Lake Center
07:43PM 43.2192 -112.0461 North 293 337 10,000 -1,740 Descending Salt Lake Center
07:44PM 43.2925 -112.0336 North 285 328 8,600 -1,320 Descending Salt Lake Center
07:45PM 43.3661 -112.0214 North 281 323 7,300 -960 Descending Salt Lake Center
07:46PM 43.4447 -112.0103 North 267 307 6,700 -420 Descending Salt Lake Center
07:47PM 43.5000 -111.9803 21° North 240 276 6,500 -240 Descending Salt Lake Center